Time;durP1;ratioP1;P1;durP2;ratioP2;P2;SDS_P1;SDS_P2;PMS_P1;PMS_P2;Temp;Humidity;BMP_temperature;BMP_pressure;BME280_temperature;BME280_humidity;BME280_pressure;Samples;Min_cycle;Max_cycle;Signal;HPM_P1;HPM_P2
2022/09/03 00:00:54;;;;;;;1.27;1.17;;;;;;;27.21;47.52;98537.47;2102501;27;20046;-54
2022/09/03 00:02:02;;;;;;;1.73;1.42;;;;;;;27.23;47.44;98543.50;2099227;28;20120;-56
2022/09/03 00:03:08;;;;;;;1.73;1.42;;;;;;;27.24;47.28;98547.84;2099218;28;20047;-56
2022/09/03 00:04:19;;;;;;;1.50;1.40;;;;;;;27.24;47.37;98550.56;2096128;28;20052;-56
2022/09/03 00:05:25;;;;;;;1.92;1.70;;;;;;;27.24;47.51;98547.84;2094704;28;20044;-55
2022/09/03 00:06:49;;;;;;;1.95;1.33;;;;;;;27.21;47.47;98548.38;2102977;28;20063;-55
2022/09/03 00:07:56;;;;;;;1.45;1.35;;;;;;;27.22;47.63;98546.47;2100663;28;20057;-56
2022/09/03 00:09:03;;;;;;;1.50;1.40;;;;;;;27.23;47.25;98548.94;2101382;28;20073;-55
2022/09/03 00:10:08;;;;;;;2.72;1.70;;;;;;;27.24;47.13;98547.03;2099342;28;20054;-54
2022/09/03 00:11:15;;;;;;;3.78;1.65;;;;;;;27.23;47.59;98550.84;2099505;28;20047;-54
2022/09/03 00:12:23;;;;;;;2.22;1.30;;;;;;;27.24;47.51;98553.28;2099992;28;20097;-54
2022/09/03 00:13:30;;;;;;;1.42;1.23;;;;;;;27.23;47.29;98556.28;2102318;28;20055;-56
2022/09/03 00:14:36;;;;;;;2.28;1.67;;;;;;;27.23;47.58;98554.38;2100273;28;20411;-56
2022/09/03 00:15:40;;;;;;;2.65;1.75;;;;;;;27.22;47.32;98552.75;2097048;28;20043;-55
2022/09/03 00:16:45;;;;;;;2.22;1.08;;;;;;;27.23;47.60;98559.00;2100303;28;20052;-54
2022/09/03 00:17:54;;;;;;;2.33;1.55;;;;;;;27.22;47.59;98551.91;2099136;27;20434;-54
2022/09/03 00:19:00;;;;;;;1.30;1.20;;;;;;;27.22;47.77;98557.34;2102771;28;20047;-54
2022/09/03 00:20:07;;;;;;;1.50;1.35;;;;;;;27.21;47.77;98561.97;2097092;28;20101;-56
2022/09/03 00:21:11;;;;;;;2.72;1.88;;;;;;;27.22;47.51;98562.78;2103191;27;20103;-55
2022/09/03 00:22:17;;;;;;;1.48;1.38;;;;;;;27.21;47.32;98561.16;2102870;28;20116;-56
2022/09/03 00:23:21;;;;;;;1.48;1.38;;;;;;;27.19;47.80;98564.13;2100936;27;20119;-54
2022/09/03 00:24:28;;;;;;;2.00;1.38;;;;;;;27.19;47.39;98558.69;2100729;28;20055;-55
2022/09/03 00:25:35;;;;;;;3.10;1.30;;;;;;;27.19;47.56;98558.69;2095691;28;20056;-55
2022/09/03 00:26:39;;;;;;;1.52;1.20;;;;;;;27.18;47.51;98559.78;2097946;28;20052;-55
2022/09/03 00:27:43;;;;;;;1.55;1.45;;;;;;;27.20;47.63;98563.06;2100958;28;20234;-56
2022/09/03 00:28:48;;;;;;;1.65;1.15;;;;;;;27.19;47.57;98564.13;2101194;28;20047;-55
2022/09/03 00:29:54;;;;;;;1.60;1.15;;;;;;;27.18;47.77;98559.78;2100939;28;20068;-55
2022/09/03 00:31:10;;;;;;;1.48;1.38;;;;;;;27.17;47.40;98558.16;2100046;27;20048;-55
2022/09/03 00:32:16;;;;;;;2.10;1.75;;;;;;;27.17;47.71;98566.31;2101724;28;20055;-54
2022/09/03 00:33:24;;;;;;;1.48;1.20;;;;;;;27.19;47.33;98564.13;2100817;28;20039;-54
2022/09/03 00:34:41;;;;;;;2.47;1.30;;;;;;;27.13;47.58;98560.53;2100987;28;20477;-55
2022/09/03 00:35:46;;;;;;;2.00;1.83;;;;;;;27.14;47.53;98551.31;2098972;28;20138;-55
2022/09/03 00:36:48;;;;;;;2.65;1.63;;;;;;;27.16;47.67;98553.78;2100363;28;20043;-55
2022/09/03 00:37:50;;;;;;;2.13;1.40;;;;;;;27.17;47.59;98560.88;2102309;28;20139;-55
2022/09/03 00:38:52;;;;;;;1.98;1.45;;;;;;;27.16;47.35;98559.22;2101493;28;20438;-55
2022/09/03 00:39:54;;;;;;;2.17;1.17;;;;;;;27.18;47.36;98551.63;2099903;28;20059;-53
2022/09/03 00:41:06;;;;;;;4.85;1.60;;;;;;;27.18;47.57;98551.63;2097469;28;20105;-54
2022/09/03 00:42:22;;;;;;;2.22;1.70;;;;;;;27.14;47.42;98555.94;2099571;28;20044;-54
2022/09/03 00:43:34;;;;;;;1.55;1.45;;;;;;;27.13;47.74;98551.53;2101614;28;20534;-55
2022/09/03 00:44:54;;;;;;;1.58;1.10;;;;;;;27.12;47.55;98547.19;2098988;28;20066;-54
2022/09/03 00:46:06;;;;;;;1.50;1.17;;;;;;;27.11;47.73;98551.81;2099984;28;20138;-57
2022/09/03 00:47:14;;;;;;;2.10;1.50;;;;;;;27.14;47.80;98562.19;2104947;28;20504;-56
2022/09/03 00:48:22;;;;;;;3.17;1.35;;;;;;;27.15;47.92;98557.56;2103793;28;20039;-55
2022/09/03 00:49:40;;;;;;;3.53;1.80;;;;;;;27.13;47.89;98560.53;2101830;28;20047;-56
2022/09/03 00:50:59;;;;;;;1.30;1.05;;;;;;;27.13;47.67;98554.28;2101264;28;20056;-53
2022/09/03 00:52:12;;;;;;;1.40;1.30;;;;;;;27.11;47.66;98562.72;2101316;28;20043;-55
2022/09/03 00:53:25;;;;;;;1.65;1.55;;;;;;;27.11;47.53;98560.00;2100786;28;20036;-54
2022/09/03 00:54:39;;;;;;;1.58;1.30;;;;;;;27.13;47.61;98557.81;2095374;28;20051;-55
2022/09/03 00:55:48;;;;;;;2.33;1.33;;;;;;;27.15;47.72;98552.13;2094576;28;20056;-55
2022/09/03 00:56:59;;;;;;;2.13;1.77;;;;;;;27.17;48.02;98552.72;2101034;28;20040;-56
2022/09/03 00:58:26;;;;;;;3.60;1.65;;;;;;;27.18;47.92;98557.06;2101940;28;20055;-56
2022/09/03 00:59:37;;;;;;;1.83;1.27;;;;;;;27.18;48.09;98555.16;2100915;28;20058;-54
2022/09/03 01:00:42;;;;;;;2.50;1.35;;;;;;;27.18;47.77;98562.50;2099618;28;20052;-56
2022/09/03 01:01:49;;;;;;;2.28;1.85;;;;;;;27.21;47.39;98556.53;2099975;28;20071;-55
2022/09/03 01:03:06;;;;;;;3.35;1.20;;;;;;;27.21;47.42;98550.28;2098009;28;20054;-56
2022/09/03 01:04:30;;;;;;;1.83;1.30;;;;;;;27.22;47.81;98554.63;2096972;28;20183;-55
2022/09/03 01:05:48;;;;;;;2.83;1.70;;;;;;;27.20;47.69;98554.91;2103377;28;20040;-57
2022/09/03 01:06:59;;;;;;;4.22;1.42;;;;;;;27.21;47.74;98561.97;2100673;28;20060;-55
2022/09/03 01:08:14;;;;;;;2.45;1.33;;;;;;;27.23;47.38;98559.81;2099052;28;20044;-56
2022/09/03 01:09:33;;;;;;;1.17;1.08;;;;;;;27.24;47.40;98555.19;2103421;27;20798;-54
2022/09/03 01:10:44;;;;;;;1.27;1.17;;;;;;;27.24;47.52;98558.72;2090158;28;20071;-55
2022/09/03 01:11:55;;;;;;;;;;;;;;;27.14;47.83;98555.94;2096259;28;20120;-55
2022/09/03 01:13:04;;;;;;;1.35;1.13;;;;;;;27.19;47.94;98564.13;2092386;28;19936;-54
2022/09/03 01:14:20;;;;;;;2.75;1.77;;;;;;;27.20;47.47;98565.78;2095224;28;20048;-55
2022/09/03 01:15:31;;;;;;;3.08;1.73;;;;;;;27.23;47.58;98559.81;2094970;28;20047;-55
2022/09/03 01:16:41;;;;;;;1.60;1.50;;;;;;;27.23;47.34;98564.47;2092258;28;20055;-54
2022/09/03 01:17:58;;;;;;;1.30;1.15;;;;;;;27.23;47.74;98569.91;2099127;28;20742;-55
2022/09/03 01:19:11;;;;;;;2.20;1.33;;;;;;;27.23;47.59;98568.00;2096932;28;20082;-54
2022/09/03 01:20:27;;;;;;;0.90;0.90;;;;;;;27.24;47.32;98566.91;2092248;28;20571;-56
2022/09/03 01:21:57;;;;;;;1.50;1.40;;;;;;;27.22;47.71;98571.81;2091944;28;20127;-56
2022/09/03 01:23:34;;;;;;;2.90;1.33;;;;;;;27.23;47.55;98567.19;2086243;28;20041;-55
2022/09/03 01:25:06;;;;;;;1.95;1.00;;;;;;;27.19;47.68;98564.13;2089279;28;20056;-55
2022/09/03 01:26:34;;;;;;;3.00;1.50;;;;;;;27.20;47.91;98560.34;2093258;28;20114;-54
2022/09/03 01:27:45;;;;;;;2.92;1.30;;;;;;;27.24;47.73;98561.47;2097539;28;20055;-54
2022/09/03 01:28:58;;;;;;;1.77;1.02;;;;;;;27.24;47.82;98566.91;2104143;28;20047;-56
2022/09/03 01:30:04;;;;;;;1.40;1.20;;;;;;;27.25;47.57;98565.03;2104662;28;20043;-54
2022/09/03 01:31:17;;;;;;;1.35;1.13;;;;;;;27.25;47.51;98573.19;2101764;28;20058;-56
2022/09/03 01:32:28;;;;;;;1.65;1.50;;;;;;;27.25;47.41;98571.28;2103818;28;20052;-56
2022/09/03 01:33:37;;;;;;;1.40;1.30;;;;;;;27.26;47.43;98574.81;2106017;28;20050;-55
2022/09/03 01:34:53;;;;;;;2.28;1.40;;;;;;;27.27;47.64;98574.53;2101546;28;20044;-55
2022/09/03 01:36:08;;;;;;;2.47;1.25;;;;;;;27.27;47.32;98569.09;2102367;28;20064;-56
2022/09/03 01:37:19;;;;;;;1.02;0.93;;;;;;;27.26;47.46;98572.09;2102879;28;20044;-56
2022/09/03 01:38:32;;;;;;;3.90;1.25;;;;;;;27.26;47.60;98570.19;2102575;28;20044;-55
2022/09/03 01:39:43;;;;;;;1.45;1.35;;;;;;;27.26;47.52;98570.19;2104508;28;20826;-56
2022/09/03 01:40:53;;;;;;;1.30;1.20;;;;;;;27.28;47.28;98562.59;2098684;28;20139;-56
2022/09/03 01:42:15;;;;;;;1.80;1.40;;;;;;;27.27;47.33;98565.56;2102129;27;20524;-56
2022/09/03 01:43:35;;;;;;;1.67;1.27;;;;;;;27.25;47.87;98567.75;2097649;27;20054;-56
2022/09/03 01:44:51;;;;;;;1.10;1.05;;;;;;;27.24;47.63;98563.38;2098519;28;20092;-54
2022/09/03 01:45:58;;;;;;;1.65;1.30;;;;;;;27.26;47.38;98570.19;2105875;28;20052;-55
2022/09/03 01:47:08;;;;;;;3.00;1.08;;;;;;;27.27;47.28;98566.38;2105781;28;20039;-55
2022/09/03 01:48:21;;;;;;;2.75;1.48;;;;;;;27.30;47.42;98568.59;2102178;28;20207;-55
2022/09/03 01:49:29;;;;;;;1.20;0.98;;;;;;;27.29;47.50;98568.84;2102040;28;20040;-54
2022/09/03 01:50:42;;;;;;;2.53;1.83;;;;;;;27.29;47.76;98574.28;2104735;27;20052;-56
2022/09/03 01:51:44;;;;;;;1.83;1.40;;;;;;;27.28;47.77;98576.19;2105657;28;20051;-55
2022/09/03 01:52:55;;;;;;;1.33;1.00;;;;;;;27.28;47.41;98578.94;2105403;27;20040;-55
2022/09/03 01:54:19;;;;;;;1.20;1.10;;;;;;;27.28;47.76;98578.94;2102645;28;20506;-56
2022/09/03 01:55:30;;;;;;;2.05;1.55;;;;;;;27.27;47.71;98576.44;2101989;28;20925;-55
2022/09/03 01:56:44;;;;;;;1.35;1.20;;;;;;;27.28;47.76;98581.66;2102004;28;20585;-57
2022/09/03 01:57:54;;;;;;;1.35;1.08;;;;;;;27.29;47.49;98583.28;2101547;28;20074;-55
2022/09/03 01:59:02;;;;;;;4.22;0.93;;;;;;;27.29;47.46;98585.19;2105500;28;20059;-55
2022/09/03 02:00:09;;;;;;;1.80;1.10;;;;;;;27.29;47.71;98575.09;2102625;28;20472;-55
2022/09/03 02:01:16;;;;;;;1.33;1.23;;;;;;;27.31;47.42;98574.88;2106194;28;20448;-55
2022/09/03 02:02:21;;;;;;;1.42;1.33;;;;;;;27.31;47.77;98580.31;2103365;27;20044;-56
2022/09/03 02:03:25;;;;;;;1.40;1.23;;;;;;;27.31;47.86;98577.59;2104180;28;20048;-57
2022/09/03 02:04:28;;;;;;;1.23;1.10;;;;;;;27.33;47.61;98580.84;2098359;28;20595;-54
2022/09/03 02:05:28;;;;;;;1.80;1.08;;;;;;;27.33;47.56;98573.53;2100783;28;20043;-57
2022/09/03 02:06:31;;;;;;;1.20;1.10;;;;;;;27.34;47.69;98574.34;2105490;28;20051;-54
2022/09/03 02:07:35;;;;;;;1.33;1.20;;;;;;;27.33;47.82;98565.34;2107904;28;20870;-56
2022/09/03 02:08:36;;;;;;;1.83;1.50;;;;;;;27.33;47.61;98573.53;2106545;28;20104;-56
2022/09/03 02:09:37;;;;;;;1.38;1.27;;;;;;;27.33;47.65;98569.94;2102930;28;20052;-55
2022/09/03 02:10:41;;;;;;;0.80;0.80;;;;;;;27.34;47.59;98566.97;2096993;28;20051;-56
2022/09/03 02:11:45;;;;;;;2.33;1.20;;;;;;;27.34;47.53;98564.25;2105938;27;20055;-54
2022/09/03 02:12:52;;;;;;;1.30;1.20;;;;;;;27.35;47.45;98570.50;2100474;28;20520;-55
2022/09/03 02:13:56;;;;;;;1.48;1.13;;;;;;;27.33;47.33;98573.53;2101295;28;20075;-56
2022/09/03 02:14:58;;;;;;;1.25;1.10;;;;;;;27.33;47.38;98562.63;2102065;28;20060;-56
2022/09/03 02:16:06;;;;;;;1.50;1.30;;;;;;;27.33;47.75;98576.25;2102318;28;20788;-55
2022/09/03 02:17:07;;;;;;;1.10;1.00;;;;;;;27.33;47.34;98570.78;2104102;28;20043;-56
2022/09/03 02:18:16;;;;;;;1.40;1.30;;;;;;;27.33;47.65;98570.78;2101695;28;20101;-55
2022/09/03 02:19:17;;;;;;;1.00;0.90;;;;;;;27.34;47.60;98566.97;2102657;28;20537;-54
2022/09/03 02:20:22;;;;;;;0.82;0.82;;;;;;;27.35;47.55;98567.78;2099139;28;20682;-55
2022/09/03 02:21:26;;;;;;;1.65;1.00;;;;;;;27.34;47.55;98566.97;2101470;28;20255;-55
2022/09/03 02:22:28;;;;;;;2.67;1.27;;;;;;;27.35;47.38;98567.78;2101407;28;20077;-54
2022/09/03 02:23:29;;;;;;;1.00;0.73;;;;;;;27.34;47.63;98566.97;2101825;28;20441;-57
2022/09/03 02:24:31;;;;;;;0.80;0.80;;;;;;;27.34;47.73;98569.69;2102268;28;20052;-54
2022/09/03 02:25:38;;;;;;;1.95;1.45;;;;;;;27.35;47.73;98563.16;2103056;27;20051;-56
2022/09/03 02:26:40;;;;;;;1.98;1.42;;;;;;;27.35;47.50;98559.63;2101647;28;20048;-57
2022/09/03 02:27:42;;;;;;;1.23;1.10;;;;;;;27.35;47.61;98563.16;2101563;27;20130;-53
2022/09/03 02:28:44;;;;;;;1.00;0.93;;;;;;;27.35;47.61;98555.00;2101930;28;20048;-57
2022/09/03 02:29:46;;;;;;;2.00;1.30;;;;;;;27.36;47.36;98558.56;2101947;28;20048;-53
2022/09/03 02:30:47;;;;;;;1.48;0.90;;;;;;;27.36;47.36;98553.09;2100866;28;20059;-55
2022/09/03 02:31:51;;;;;;;1.85;1.20;;;;;;;27.35;47.42;98556.91;2101473;28;20051;-54
2022/09/03 02:32:52;;;;;;;1.75;1.13;;;;;;;27.35;47.28;98549.53;2102486;27;20056;-56
2022/09/03 02:33:56;;;;;;;1.83;1.00;;;;;;;27.35;47.71;98549.53;2105107;28;20069;-55
2022/09/03 02:34:57;;;;;;;1.23;1.10;;;;;;;27.34;47.80;98553.34;2102063;28;21308;-55
2022/09/03 02:36:00;;;;;;;1.23;1.13;;;;;;;27.37;47.60;98549.28;2099972;28;20608;-54
2022/09/03 02:37:11;;;;;;;1.23;1.13;;;;;;;27.34;47.71;98550.63;2101432;28;20048;-56
2022/09/03 02:38:16;;;;;;;1.10;1.10;;;;;;;27.34;47.69;98549.81;2102559;28;20043;-56
2022/09/03 02:39:16;;;;;;;2.28;1.30;;;;;;;27.34;47.77;98544.38;2101383;28;20052;-55
2022/09/03 02:40:18;;;;;;;1.40;1.30;;;;;;;27.33;47.61;98546.28;2096203;28;20130;-56
2022/09/03 02:41:19;;;;;;;1.10;0.98;;;;;;;27.34;47.51;98545.19;2097641;28;20058;-56
2022/09/03 02:42:21;;;;;;;1.40;1.30;;;;;;;27.35;47.29;98552.25;2102322;28;20532;-55
2022/09/03 02:43:29;;;;;;;1.20;1.10;;;;;;;27.32;47.31;98541.91;2101895;28;20047;-56
2022/09/03 02:44:36;;;;;;;0.70;0.70;;;;;;;27.34;47.76;98547.91;2101968;28;20062;-55
2022/09/03 02:45:44;;;;;;;1.40;1.30;;;;;;;27.34;47.32;98547.09;2100982;28;20048;-54
2022/09/03 02:46:53;;;;;;;1.83;1.10;;;;;;;27.34;47.52;98545.19;2104537;28;20071;-56
2022/09/03 02:47:56;;;;;;;0.90;0.90;;;;;;;27.36;47.75;98547.66;2100875;28;20043;-57
2022/09/03 02:48:58;;;;;;;1.25;1.17;;;;;;;27.35;47.24;98540.56;2099043;28;20043;-54
2022/09/03 02:49:59;;;;;;;1.63;1.02;;;;;;;27.35;47.44;98549.53;2101818;28;20044;-56
2022/09/03 02:51:00;;;;;;;1.20;1.10;;;;;;;27.35;47.64;98546.81;2102100;28;20047;-57
2022/09/03 02:52:05;;;;;;;1.27;1.08;;;;;;;27.35;47.58;98546.81;2104672;28;20061;-55
2022/09/03 02:53:07;;;;;;;0.80;0.80;;;;;;;27.35;47.43;98546.00;2101808;28;20177;-54
2022/09/03 02:54:09;;;;;;;2.10;1.40;;;;;;;27.35;47.56;98546.81;2103130;28;20075;-54
2022/09/03 02:55:11;;;;;;;1.20;1.05;;;;;;;27.36;47.44;98543.03;2101222;28;20043;-54
2022/09/03 02:56:12;;;;;;;1.60;1.17;;;;;;;27.36;47.63;98543.03;2097700;28;20047;-55
2022/09/03 02:57:16;;;;;;;1.45;1.20;;;;;;;27.38;47.84;98551.75;2103428;28;20074;-54
2022/09/03 02:58:17;;;;;;;1.52;1.42;;;;;;;27.36;47.70;98553.09;2101577;28;20040;-55
2022/09/03 02:59:19;;;;;;;1.92;1.35;;;;;;;27.37;47.55;98547.38;2102902;28;20162;-54
2022/09/03 03:00:20;;;;;;;1.80;1.02;;;;;;;27.36;47.75;98545.75;2101759;28;20040;-54
2022/09/03 03:01:22;;;;;;;1.27;1.15;;;;;;;27.35;47.30;98546.00;2103703;28;20097;-53
2022/09/03 03:02:24;;;;;;;1.25;1.10;;;;;;;27.34;47.67;98547.91;2103023;28;20052;-57
2022/09/03 03:03:26;;;;;;;1.40;1.30;;;;;;;27.37;47.23;98543.84;2103790;28;20047;-55
2022/09/03 03:04:29;;;;;;;1.13;1.00;;;;;;;27.36;47.39;98544.94;2101984;28;20055;-54
2022/09/03 03:05:40;;;;;;;1.58;1.33;;;;;;;27.35;47.25;98551.44;2103540;28;20094;-54
2022/09/03 03:06:41;;;;;;;0.95;0.95;;;;;;;27.34;47.61;98550.63;2102942;28;20059;-56
2022/09/03 03:07:43;;;;;;;1.10;1.00;;;;;;;27.36;47.20;98548.47;2103907;28;20130;-54
2022/09/03 03:08:45;;;;;;;1.92;1.50;;;;;;;27.36;47.29;98551.19;2102208;28;20568;-56
2022/09/03 03:11:07;;;;;;;0.93;0.93;;;;;;;27.31;47.45;98545.72;2097028;28;20040;-55
2022/09/03 03:12:09;;;;;;;1.70;0.93;;;;;;;27.32;47.49;98550.06;2102095;28;20051;-53
2022/09/03 03:13:11;;;;;;;1.60;0.98;;;;;;;27.34;47.53;98547.91;2100570;28;20058;-54
2022/09/03 03:14:11;;;;;;;1.13;0.80;;;;;;;27.35;47.52;98551.44;2103426;27;20612;-55
2022/09/03 03:15:14;;;;;;;1.10;1.00;;;;;;;27.36;47.32;98553.94;2102796;28;20040;-54
2022/09/03 03:16:15;;;;;;;1.23;1.05;;;;;;;27.37;47.50;98555.56;2100959;28;20119;-54
2022/09/03 03:17:17;;;;;;;1.17;1.00;;;;;;;27.35;47.43;98552.25;2102620;28;20036;-55
2022/09/03 03:18:19;;;;;;;2.60;1.10;;;;;;;27.36;47.45;98559.38;2100064;28;21346;-54
2022/09/03 03:19:21;;;;;;;2.10;1.15;;;;;;;27.35;47.38;98555.00;2099316;28;20382;-53
2022/09/03 03:20:22;;;;;;;1.80;1.17;;;;;;;27.36;47.57;98555.84;2101193;28;20051;-54
2022/09/03 03:21:24;;;;;;;1.30;0.88;;;;;;;27.36;47.64;98553.09;2104802;28;20509;-55
2022/09/03 03:22:25;;;;;;;1.48;1.33;;;;;;;27.36;47.45;98548.47;2102198;28;20048;-53
2022/09/03 03:23:27;;;;;;;1.60;1.50;;;;;;;27.36;47.58;98553.94;2102773;28;20179;-55
2022/09/03 03:24:27;;;;;;;1.52;0.98;;;;;;;27.36;47.80;98542.22;2102837;28;20398;-55
2022/09/03 03:25:31;;;;;;;1.15;1.05;;;;;;;27.37;47.29;98546.56;2101103;27;20043;-55
2022/09/03 03:26:33;;;;;;;1.65;1.25;;;;;;;27.35;47.49;98549.53;2100967;28;20505;-55
2022/09/03 03:27:34;;;;;;;1.45;1.13;;;;;;;27.35;47.61;98552.25;2102639;28;20418;-53
2022/09/03 03:28:37;;;;;;;1.33;1.23;;;;;;;27.36;47.29;98543.03;2100822;28;20052;-55
2022/09/03 03:29:38;;;;;;;1.23;0.90;;;;;;;27.36;47.45;98543.03;2101311;28;20138;-56
2022/09/03 03:30:41;;;;;;;1.33;1.23;;;;;;;27.34;47.33;98542.47;2099328;28;20052;-55
2022/09/03 03:31:42;;;;;;;1.38;1.10;;;;;;;27.32;47.64;98539.19;2100846;28;20044;-54
2022/09/03 03:32:44;;;;;;;1.23;1.17;;;;;;;27.34;47.61;98539.75;2101817;28;20051;-55
2022/09/03 03:33:51;;;;;;;0.82;0.82;;;;;;;27.35;47.62;98540.56;2103170;28;20665;-53
2022/09/03 03:34:53;;;;;;;1.10;1.00;;;;;;;27.32;47.64;98536.47;2100704;28;20553;-54
2022/09/03 03:35:54;;;;;;;1.10;1.00;;;;;;;27.33;47.59;98549.00;2099993;28;20051;-54
2022/09/03 03:36:56;;;;;;;3.55;1.00;;;;;;;27.34;47.53;98538.94;2097992;28;20443;-56
2022/09/03 03:37:57;;;;;;;1.33;1.17;;;;;;;27.36;47.68;98536.78;2100849;27;21075;-54
2022/09/03 03:39:00;;;;;;;1.52;0.93;;;;;;;27.29;47.58;98531.53;2102593;28;21979;-55
2022/09/03 03:40:01;;;;;;;0.98;0.70;;;;;;;27.32;47.61;98536.47;2101558;28;20047;-54
2022/09/03 03:41:08;;;;;;;1.95;1.05;;;;;;;27.33;47.45;98537.28;2100728;27;20643;-55
2022/09/03 03:42:09;;;;;;;1.65;1.25;;;;;;;27.32;47.56;98536.47;2101986;28;20040;-55
2022/09/03 03:43:11;;;;;;;1.33;1.10;;;;;;;27.33;47.82;98540.00;2098265;28;20120;-53
2022/09/03 03:44:12;;;;;;;1.00;1.00;;;;;;;27.32;47.68;98541.91;2103156;28;20047;-55
2022/09/03 03:45:13;;;;;;;1.00;1.00;;;;;;;27.33;47.58;98534.53;2100701;28;20795;-55
2022/09/03 03:46:14;;;;;;;1.48;0.95;;;;;;;27.32;47.42;98539.19;2100084;28;20043;-54
2022/09/03 03:47:17;;;;;;;0.98;0.80;;;;;;;27.33;47.68;98540.00;2101827;28;20993;-54
2022/09/03 03:48:17;;;;;;;1.65;1.10;;;;;;;27.31;47.63;98537.56;2101739;28;20051;-53
2022/09/03 03:49:21;;;;;;;1.02;0.93;;;;;;;27.30;47.64;98541.38;2104557;28;20072;-56
2022/09/03 03:50:22;;;;;;;0.70;0.70;;;;;;;27.32;47.92;98538.38;2101395;28;20054;-56
2022/09/03 03:51:24;;;;;;;1.10;1.00;;;;;;;27.33;47.39;98540.00;2098286;28;20036;-54
2022/09/03 03:52:26;;;;;;;1.85;1.02;;;;;;;27.32;47.69;98528.28;2095392;28;20075;-57
2022/09/03 03:53:28;;;;;;;2.95;1.23;;;;;;;27.34;47.24;98541.66;2102577;28;20727;-55
2022/09/03 03:54:29;;;;;;;1.25;0.93;;;;;;;27.31;47.70;98534.81;2098359;28;20066;-53
2022/09/03 03:55:31;;;;;;;2.83;1.17;;;;;;;27.29;47.48;98536.16;2102429;28;20488;-57
2022/09/03 03:56:33;;;;;;;1.05;1.02;;;;;;;27.32;47.77;98533.72;2098148;28;20060;-56
2022/09/03 03:57:35;;;;;;;0.93;0.90;;;;;;;27.32;47.59;98535.63;2104829;28;20498;-56
2022/09/03 03:58:36;;;;;;;1.10;0.88;;;;;;;27.30;47.83;98530.47;2103696;28;20048;-56
2022/09/03 03:59:38;;;;;;;1.08;0.98;;;;;;;27.31;47.82;98532.09;2104115;28;20493;-56
2022/09/03 04:00:39;;;;;;;1.08;0.85;;;;;;;27.31;47.43;98528.56;2101696;28;20055;-56
2022/09/03 04:01:41;;;;;;;1.42;1.08;;;;;;;27.32;47.85;98536.47;2101340;28;20048;-57
2022/09/03 04:02:42;;;;;;;1.88;1.77;;;;;;;27.32;47.61;98531.00;2100994;28;20063;-56
2022/09/03 04:03:44;;;;;;;1.88;0.90;;;;;;;27.32;47.42;98536.47;2105532;28;20108;-57
2022/09/03 04:04:47;;;;;;;0.90;0.90;;;;;;;27.31;47.53;98531.28;2101818;28;20036;-56
2022/09/03 04:05:56;;;;;;;1.70;0.95;;;;;;;27.29;47.49;98536.16;2102832;28;20055;-56
2022/09/03 04:06:57;;;;;;;1.05;1.05;;;;;;;27.30;47.90;98535.91;2104681;28;20601;-55
2022/09/03 04:08:01;;;;;;;1.00;1.00;;;;;;;27.30;47.75;98525.03;2107947;28;20050;-55
2022/09/03 04:09:03;;;;;;;2.67;1.30;;;;;;;27.29;47.49;98526.09;2108085;28;20038;-57
2022/09/03 04:10:05;;;;;;;1.23;1.20;;;;;;;27.28;47.86;98532.63;2092120;28;20062;-56
2022/09/03 04:11:09;;;;;;;0.77;0.77;;;;;;;27.30;47.55;98530.47;2100365;28;20051;-54
2022/09/03 04:12:10;;;;;;;2.13;0.90;;;;;;;27.29;47.77;98531.53;2100424;28;20051;-56
2022/09/03 04:13:12;;;;;;;0.93;0.80;;;;;;;27.30;47.71;98544.09;2104640;28;20400;-56
2022/09/03 04:14:13;;;;;;;1.23;1.10;;;;;;;27.28;47.64;98534.53;2103655;28;20036;-55
2022/09/03 04:15:15;;;;;;;1.67;1.55;;;;;;;27.29;47.71;98530.72;2101101;27;20873;-57
2022/09/03 04:16:18;;;;;;;1.20;1.10;;;;;;;27.27;47.75;98533.69;2097235;28;20059;-55
2022/09/03 04:17:19;;;;;;;1.15;0.93;;;;;;;27.29;47.70;98538.91;2102816;28;20522;-57
2022/09/03 04:18:20;;;;;;;1.08;1.02;;;;;;;27.29;47.48;98542.44;2101123;28;20059;-56
2022/09/03 04:19:23;;;;;;;1.10;1.00;;;;;;;27.29;47.57;98541.63;2100435;28;20147;-56
2022/09/03 04:20:25;;;;;;;1.23;1.13;;;;;;;27.29;47.36;98536.97;2099976;28;20398;-56
2022/09/03 04:21:29;;;;;;;0.70;0.70;;;;;;;27.29;47.63;98542.44;2098643;28;20052;-56
2022/09/03 04:22:30;;;;;;;1.48;1.35;;;;;;;27.28;47.80;98543.53;2099643;28;20050;-56
2022/09/03 04:23:32;;;;;;;0.98;0.80;;;;;;;27.26;47.73;98542.97;2100124;28;20054;-56
2022/09/03 04:24:34;;;;;;;0.68;0.68;;;;;;;27.27;47.63;98535.59;2107638;28;20048;-55
2022/09/03 04:25:36;;;;;;;1.23;1.13;;;;;;;27.28;47.52;98540.00;2103147;28;20051;-56
2022/09/03 04:26:39;;;;;;;1.00;0.90;;;;;;;27.27;48.03;98541.88;2095696;28;20657;-56
2022/09/03 04:27:41;;;;;;;1.73;1.40;;;;;;;27.27;47.92;98544.59;2101777;28;20040;-57
2022/09/03 04:28:44;;;;;;;1.17;0.93;;;;;;;27.27;48.00;98541.88;2102612;28;20051;-56
2022/09/03 04:29:45;;;;;;;1.40;1.30;;;;;;;27.26;47.53;98537.50;2104364;28;20086;-54
2022/09/03 04:30:46;;;;;;;0.88;0.88;;;;;;;27.27;47.49;98541.88;2102538;28;20059;-55
2022/09/03 04:33:04;;;;;;;1.27;0.95;;;;;;;27.26;47.89;98531.25;2102350;28;20047;-56
2022/09/03 04:34:05;;;;;;;1.10;0.98;;;;;;;27.26;48.02;98539.44;2103675;28;20694;-57
2022/09/03 04:35:07;;;;;;;1.08;0.93;;;;;;;27.26;47.87;98536.69;2103399;28;20040;-56
2022/09/03 04:36:11;;;;;;;1.27;1.13;;;;;;;27.27;47.88;98539.13;2102814;28;20485;-56
2022/09/03 04:37:15;;;;;;;1.02;0.93;;;;;;;27.25;47.71;98535.88;2098832;28;20047;-57
2022/09/03 04:38:16;;;;;;;1.08;0.98;;;;;;;27.26;47.73;98544.88;2101857;28;20044;-57
2022/09/03 04:39:18;;;;;;;1.20;1.15;;;;;;;27.26;47.82;98537.50;2102668;28;20044;-56
2022/09/03 04:40:18;;;;;;;0.63;0.63;;;;;;;27.26;47.66;98532.06;2101656;28;20047;-55
2022/09/03 04:41:23;;;;;;;1.20;1.10;;;;;;;27.27;47.79;98532.88;2102266;28;20066;-55
2022/09/03 04:42:24;;;;;;;1.10;1.00;;;;;;;27.25;47.68;98526.91;2095425;28;20032;-56
2022/09/03 04:43:26;;;;;;;1.05;0.98;;;;;;;27.26;47.65;98532.06;2100462;27;20285;-57
2022/09/03 04:44:27;;;;;;;2.05;1.30;;;;;;;27.28;47.49;98531.81;2095063;28;20048;-56
2022/09/03 04:45:29;;;;;;;1.15;0.82;;;;;;;27.26;47.88;98531.25;2094193;28;20067;-55
2022/09/03 04:46:32;;;;;;;0.90;0.90;;;;;;;27.25;48.05;98524.19;2091980;28;20426;-56
2022/09/03 04:47:35;;;;;;;1.40;0.88;;;;;;;27.25;47.75;98525.00;2095861;28;20058;-54
2022/09/03 04:48:36;;;;;;;1.40;1.30;;;;;;;27.25;47.72;98514.09;2093281;28;20056;-56
2022/09/03 04:49:39;;;;;;;0.90;0.75;;;;;;;27.26;47.73;98525.81;2094641;28;20125;-57
2022/09/03 04:50:40;;;;;;;2.05;1.33;;;;;;;27.26;48.00;98523.91;2094042;28;20054;-57
2022/09/03 04:51:44;;;;;;;1.10;1.10;;;;;;;27.27;47.70;98522.00;2095554;28;20131;-55
2022/09/03 04:52:44;;;;;;;1.05;1.00;;;;;;;27.24;47.68;98520.63;2093461;28;20052;-55
2022/09/03 04:53:48;;;;;;;1.88;0.70;;;;;;;27.24;47.90;98523.34;2094955;28;20072;-56
2022/09/03 04:54:49;;;;;;;1.13;1.10;;;;;;;27.24;47.84;98519.78;2092879;28;20194;-55
2022/09/03 04:55:51;;;;;;;1.38;1.20;;;;;;;27.23;47.67;98518.97;2097765;28;20126;-56
2022/09/03 04:56:52;;;;;;;0.80;0.80;;;;;;;27.24;47.66;98515.16;2093491;28;20044;-57
2022/09/03 04:57:54;;;;;;;1.83;1.05;;;;;;;27.23;47.69;98516.25;2095185;28;20402;-57
2022/09/03 04:58:57;;;;;;;1.60;1.25;;;;;;;27.25;48.08;98511.38;2091316;28;20448;-56
2022/09/03 04:59:59;;;;;;;2.67;1.08;;;;;;;27.24;48.09;98508.91;2093211;28;20102;-55
2022/09/03 05:01:07;;;;;;;1.10;1.00;;;;;;;27.24;47.63;98512.44;2095610;28;20417;-55
2022/09/03 05:02:09;;;;;;;0.95;0.80;;;;;;;27.23;48.17;98508.09;2094854;28;20041;-56
2022/09/03 05:03:10;;;;;;;0.93;0.77;;;;;;;27.24;47.96;98512.44;2095541;28;20116;-56
2022/09/03 05:04:12;;;;;;;1.73;0.90;;;;;;;27.23;47.68;98508.09;2091362;28;20071;-57
2022/09/03 05:05:13;;;;;;;2.45;1.00;;;;;;;27.23;47.87;98513.53;2091562;28;20665;-56
2022/09/03 05:06:16;;;;;;;1.25;1.15;;;;;;;27.24;48.10;98509.72;2095033;28;20055;-56
2022/09/03 05:07:19;;;;;;;1.02;0.93;;;;;;;27.24;47.71;98515.16;2095285;28;20048;-55
2022/09/03 05:08:22;;;;;;;1.77;0.77;;;;;;;27.24;47.54;98514.34;2091131;28;20890;-55
2022/09/03 05:09:24;;;;;;;1.17;1.08;;;;;;;27.24;47.80;98519.78;2095801;28;20059;-57
2022/09/03 05:10:25;;;;;;;1.40;0.88;;;;;;;27.23;47.72;98513.53;2093751;28;20294;-56
2022/09/03 05:11:28;;;;;;;1.10;1.00;;;;;;;27.23;48.06;98510.81;2100890;28;20047;-56
2022/09/03 05:12:30;;;;;;;0.82;0.82;;;;;;;27.22;47.76;98517.34;2100659;28;20123;-54